sensor_id;sensor_type;location;lat;lon;timestamp;pressure;altitude;pressure_sealevel;temperature;humidity
13974;BME280;7060;43.770;4.008;2023-04-29T00:00:15;100985.34;;;14.66;71.38
13974;BME280;7060;43.770;4.008;2023-04-29T00:02:44;100985.16;;;14.60;71.60
13974;BME280;7060;43.770;4.008;2023-04-29T00:05:13;100993.72;;;14.55;71.52
13974;BME280;7060;43.770;4.008;2023-04-29T00:07:42;101000.75;;;14.48;71.54
13974;BME280;7060;43.770;4.008;2023-04-29T00:10:10;100993.16;;;14.43;71.48
13974;BME280;7060;43.770;4.008;2023-04-29T00:12:42;100994.16;;;14.42;71.67
13974;BME280;7060;43.770;4.008;2023-04-29T00:15:11;100996.88;;;14.42;71.51
13974;BME280;7060;43.770;4.008;2023-04-29T00:17:39;100999.56;;;14.42;71.52
13974;BME280;7060;43.770;4.008;2023-04-29T00:20:09;100981.22;;;14.38;71.64
13974;BME280;7060;43.770;4.008;2023-04-29T00:22:38;100979.53;;;14.29;71.96
13974;BME280;7060;43.770;4.008;2023-04-29T00:25:08;100966.56;;;14.24;72.11
13974;BME280;7060;43.770;4.008;2023-04-29T00:27:36;100968.41;;;14.23;72.18
13974;BME280;7060;43.770;4.008;2023-04-29T00:30:08;100959.66;;;14.21;72.30
13974;BME280;7060;43.770;4.008;2023-04-29T00:32:36;100944.06;;;14.25;72.10
13974;BME280;7060;43.770;4.008;2023-04-29T00:35:05;100929.25;;;14.21;72.22
13974;BME280;7060;43.770;4.008;2023-04-29T00:37:34;100936.81;;;14.34;72.18
13974;BME280;7060;43.770;4.008;2023-04-29T00:40:04;100937.66;;;14.34;71.92
13974;BME280;7060;43.770;4.008;2023-04-29T00:42:33;100934.28;;;14.32;72.35
13974;BME280;7060;43.770;4.008;2023-04-29T00:45:01;100936.19;;;14.32;72.30
13974;BME280;7060;43.770;4.008;2023-04-29T00:47:33;100952.31;;;14.32;72.57
13974;BME280;7060;43.770;4.008;2023-04-29T00:50:02;100965.41;;;14.35;72.56
13974;BME280;7060;43.770;4.008;2023-04-29T00:52:31;100946.56;;;14.35;72.21
13974;BME280;7060;43.770;4.008;2023-04-29T00:55:00;100940.72;;;14.31;72.49
13974;BME280;7060;43.770;4.008;2023-04-29T00:57:29;100936.50;;;14.29;72.62
13974;BME280;7060;43.770;4.008;2023-04-29T00:59:59;100937.66;;;14.26;72.51
13974;BME280;7060;43.770;4.008;2023-04-29T01:02:28;100926.06;;;14.26;72.75
13974;BME280;7060;43.770;4.008;2023-04-29T01:04:58;100924.75;;;14.30;72.99
13974;BME280;7060;43.770;4.008;2023-04-29T01:07:33;100918.69;;;14.28;72.91
13974;BME280;7060;43.770;4.008;2023-04-29T01:10:09;100921.00;;;14.22;73.05
13974;BME280;7060;43.770;4.008;2023-04-29T01:12:43;100914.31;;;14.27;72.93
13974;BME280;7060;43.770;4.008;2023-04-29T01:15:20;100921.00;;;14.22;73.22
13974;BME280;7060;43.770;4.008;2023-04-29T01:17:55;100918.00;;;14.26;72.81
13974;BME280;7060;43.770;4.008;2023-04-29T01:20:29;100912.94;;;14.22;73.07
13974;BME280;7060;43.770;4.008;2023-04-29T01:22:58;100929.75;;;14.16;73.23
13974;BME280;7060;43.770;4.008;2023-04-29T01:25:30;100922.88;;;14.22;73.00
13974;BME280;7060;43.770;4.008;2023-04-29T01:28:28;100915.28;;;14.17;72.83
13974;BME280;7060;43.770;4.008;2023-04-29T01:31:06;100905.50;;;14.08;73.47
13974;BME280;7060;43.770;4.008;2023-04-29T01:33:43;100928.91;;;14.16;73.45
13974;BME280;7060;43.770;4.008;2023-04-29T01:36:22;100921.19;;;14.21;73.28
13974;BME280;7060;43.770;4.008;2023-04-29T01:39:01;100918.66;;;14.19;72.85
13974;BME280;7060;43.770;4.008;2023-04-29T01:41:41;100918.31;;;14.14;72.89
13974;BME280;7060;43.770;4.008;2023-04-29T01:44:21;100913.09;;;14.13;73.30
13974;BME280;7060;43.770;4.008;2023-04-29T01:46:52;100921.63;;;14.08;73.54
13974;BME280;7060;43.770;4.008;2023-04-29T01:49:28;100907.50;;;14.06;73.63
13974;BME280;7060;43.770;4.008;2023-04-29T01:51:57;100910.19;;;14.06;73.27
13974;BME280;7060;43.770;4.008;2023-04-29T01:54:25;100921.31;;;14.03;73.40
13974;BME280;7060;43.770;4.008;2023-04-29T01:56:56;100924.00;;;14.03;73.34
13974;BME280;7060;43.770;4.008;2023-04-29T01:59:43;100929.19;;;13.97;73.33
13974;BME280;7060;43.770;4.008;2023-04-29T02:02:34;100928.97;;;13.90;73.68
13974;BME280;7060;43.770;4.008;2023-04-29T02:05:13;100920.25;;;13.88;73.70
13974;BME280;7060;43.770;4.008;2023-04-29T02:07:49;100908.81;;;13.86;74.42
13974;BME280;7060;43.770;4.008;2023-04-29T02:10:18;100902.44;;;13.87;74.09
13974;BME280;7060;43.770;4.008;2023-04-29T02:12:52;100900.09;;;13.92;74.32
13974;BME280;7060;43.770;4.008;2023-04-29T02:15:21;100901.28;;;13.98;73.86
13974;BME280;7060;43.770;4.008;2023-04-29T02:17:49;100915.25;;;14.01;73.95
13974;BME280;7060;43.770;4.008;2023-04-29T02:20:19;100913.41;;;14.02;73.89
13974;BME280;7060;43.770;4.008;2023-04-29T02:22:47;100912.06;;;13.98;73.67
13974;BME280;7060;43.770;4.008;2023-04-29T02:25:16;100905.31;;;13.94;74.04
13974;BME280;7060;43.770;4.008;2023-04-29T02:27:44;100896.56;;;13.92;74.14
13974;BME280;7060;43.770;4.008;2023-04-29T02:30:14;100896.25;;;13.95;73.93
13974;BME280;7060;43.770;4.008;2023-04-29T02:32:43;100890.72;;;13.96;74.04
13974;BME280;7060;43.770;4.008;2023-04-29T02:35:13;100906.00;;;13.96;74.04
13974;BME280;7060;43.770;4.008;2023-04-29T02:37:42;100916.44;;;13.99;74.05
13974;BME280;7060;43.770;4.008;2023-04-29T02:40:11;100899.81;;;14.03;73.68
13974;BME280;7060;43.770;4.008;2023-04-29T02:42:40;100889.72;;;13.97;73.59
13974;BME280;7060;43.770;4.008;2023-04-29T02:45:09;100896.41;;;13.93;74.00
13974;BME280;7060;43.770;4.008;2023-04-29T02:47:39;100901.47;;;13.96;73.83
13974;BME280;7060;43.770;4.008;2023-04-29T02:50:08;100904.00;;;13.98;73.92
13974;BME280;7060;43.770;4.008;2023-04-29T02:52:37;100894.06;;;13.98;73.81
13974;BME280;7060;43.770;4.008;2023-04-29T02:55:08;100889.72;;;13.97;74.02
13974;BME280;7060;43.770;4.008;2023-04-29T02:57:36;100888.69;;;13.98;73.77
13974;BME280;7060;43.770;4.008;2023-04-29T03:00:06;100887.34;;;13.94;73.85
13974;BME280;7060;43.770;4.008;2023-04-29T03:02:35;100885.34;;;13.96;74.15
13974;BME280;7060;43.770;4.008;2023-04-29T03:05:06;100887.38;;;14.02;73.91
13974;BME280;7060;43.770;4.008;2023-04-29T03:07:35;100878.78;;;13.99;73.72
13974;BME280;7060;43.770;4.008;2023-04-29T03:10:04;100869.38;;;13.95;73.69
13974;BME280;7060;43.770;4.008;2023-04-29T03:12:35;100881.97;;;13.94;73.83
13974;BME280;7060;43.770;4.008;2023-04-29T03:15:06;100881.63;;;13.97;73.55
13974;BME280;7060;43.770;4.008;2023-04-29T03:17:36;100885.66;;;13.93;73.21
13974;BME280;7060;43.770;4.008;2023-04-29T03:20:07;100892.88;;;13.93;73.38
13974;BME280;7060;43.770;4.008;2023-04-29T03:22:39;100895.06;;;13.89;73.36
13974;BME280;7060;43.770;4.008;2023-04-29T03:25:09;100888.31;;;13.85;73.88
13974;BME280;7060;43.770;4.008;2023-04-29T03:27:38;100877.88;;;13.82;73.87
13974;BME280;7060;43.770;4.008;2023-04-29T03:30:07;100890.47;;;13.81;74.06
13974;BME280;7060;43.770;4.008;2023-04-29T03:32:42;100883.78;;;13.85;74.00
13974;BME280;7060;43.770;4.008;2023-04-29T03:35:12;100872.53;;;13.90;73.33
13974;BME280;7060;43.770;4.008;2023-04-29T03:38:07;100866.50;;;13.88;73.39
13974;BME280;7060;43.770;4.008;2023-04-29T03:40:37;100871.03;;;13.87;73.42
13974;BME280;7060;43.770;4.008;2023-04-29T03:43:05;100885.47;;;13.86;73.33
13974;BME280;7060;43.770;4.008;2023-04-29T03:45:35;100883.47;;;13.88;73.22
13974;BME280;7060;43.770;4.008;2023-04-29T03:48:05;100883.78;;;13.85;73.54
13974;BME280;7060;43.770;4.008;2023-04-29T03:50:36;100880.56;;;13.82;73.57
13974;BME280;7060;43.770;4.008;2023-04-29T03:53:04;100881.06;;;13.77;73.97
13974;BME280;7060;43.770;4.008;2023-04-29T03:55:34;100863.59;;;13.73;73.88
13974;BME280;7060;43.770;4.008;2023-04-29T03:58:03;100863.94;;;13.70;74.09
13974;BME280;7060;43.770;4.008;2023-04-29T04:00:31;100865.44;;;13.73;74.16
13974;BME280;7060;43.770;4.008;2023-04-29T04:03:04;100870.66;;;13.82;73.91
13974;BME280;7060;43.770;4.008;2023-04-29T04:05:36;100881.25;;;13.84;73.74
13974;BME280;7060;43.770;4.008;2023-04-29T04:08:08;100882.41;;;13.81;73.95
13974;BME280;7060;43.770;4.008;2023-04-29T04:10:50;100884.44;;;13.79;73.98
13974;BME280;7060;43.770;4.008;2023-04-29T04:13:31;100893.00;;;13.83;74.20
13974;BME280;7060;43.770;4.008;2023-04-29T04:15:59;100897.69;;;13.81;74.08
13974;BME280;7060;43.770;4.008;2023-04-29T04:18:29;100893.69;;;13.77;74.24
13974;BME280;7060;43.770;4.008;2023-04-29T04:21:04;100900.53;;;13.79;74.25
13974;BME280;7060;43.770;4.008;2023-04-29T04:23:34;100908.13;;;13.76;74.91
13974;BME280;7060;43.770;4.008;2023-04-29T04:26:03;100903.75;;;13.75;74.83
13974;BME280;7060;43.770;4.008;2023-04-29T04:28:51;100900.38;;;13.73;75.11
13974;BME280;7060;43.770;4.008;2023-04-29T04:31:47;100900.38;;;13.73;75.08
13974;BME280;7060;43.770;4.008;2023-04-29T04:34:17;100891.00;;;13.77;74.88
13974;BME280;7060;43.770;4.008;2023-04-29T04:36:50;100879.41;;;13.76;75.47
13974;BME280;7060;43.770;4.008;2023-04-29T04:39:18;100868.47;;;13.78;75.42
13974;BME280;7060;43.770;4.008;2023-04-29T04:41:47;100874.50;;;13.80;75.41
13974;BME280;7060;43.770;4.008;2023-04-29T04:44:16;100881.91;;;13.78;75.57
13974;BME280;7060;43.770;4.008;2023-04-29T04:47:20;100898.88;;;13.78;75.84
13974;BME280;7060;43.770;4.008;2023-04-29T04:49:55;100889.16;;;13.85;75.22
13974;BME280;7060;43.770;4.008;2023-04-29T04:52:25;100895.38;;;13.86;75.00
13974;BME280;7060;43.770;4.008;2023-04-29T04:55:16;100905.44;;;13.84;75.58
13974;BME280;7060;43.770;4.008;2023-04-29T04:57:48;100895.38;;;13.86;75.22
13974;BME280;7060;43.770;4.008;2023-04-29T05:00:17;100899.59;;;13.88;75.57
13974;BME280;7060;43.770;4.008;2023-04-29T05:02:45;100888.84;;;13.88;75.25
13974;BME280;7060;43.770;4.008;2023-04-29T05:05:15;100876.72;;;13.76;75.47
13974;BME280;7060;43.770;4.008;2023-04-29T05:07:45;100910.50;;;13.87;75.85
13974;BME280;7060;43.770;4.008;2023-04-29T05:10:15;100889.69;;;13.89;75.38
13974;BME280;7060;43.770;4.008;2023-04-29T05:12:48;100891.69;;;13.87;75.94
13974;BME280;7060;43.770;4.008;2023-04-29T05:15:20;100898.41;;;13.91;75.96
13974;BME280;7060;43.770;4.008;2023-04-29T05:17:51;100881.63;;;13.97;75.68
13974;BME280;7060;43.770;4.008;2023-04-29T05:20:20;100881.84;;;14.04;75.38
13974;BME280;7060;43.770;4.008;2023-04-29T05:22:49;100885.84;;;14.08;75.04
13974;BME280;7060;43.770;4.008;2023-04-29T05:25:19;100882.84;;;14.11;75.14
13974;BME280;7060;43.770;4.008;2023-04-29T05:27:47;100889.91;;;14.12;74.98
13974;BME280;7060;43.770;4.008;2023-04-29T05:30:18;100889.38;;;14.08;75.13
13974;BME280;7060;43.770;4.008;2023-04-29T05:32:47;100891.75;;;14.03;75.20
13974;BME280;7060;43.770;4.008;2023-04-29T05:35:18;100905.34;;;14.02;75.47
13974;BME280;7060;43.770;4.008;2023-04-29T05:37:47;100905.84;;;14.05;75.43
13974;BME280;7060;43.770;4.008;2023-04-29T05:40:31;100914.09;;;14.04;75.53
13974;BME280;7060;43.770;4.008;2023-04-29T05:43:20;100917.78;;;14.03;76.09
13974;BME280;7060;43.770;4.008;2023-04-29T05:45:49;100911.56;;;14.10;75.97
13974;BME280;7060;43.770;4.008;2023-04-29T05:48:17;100903.34;;;14.12;76.22
13974;BME280;7060;43.770;4.008;2023-04-29T05:50:46;100899.16;;;14.17;76.43
13974;BME280;7060;43.770;4.008;2023-04-29T05:53:14;100886.91;;;14.23;76.16
13974;BME280;7060;43.770;4.008;2023-04-29T05:55:44;100859.66;;;14.18;76.04
13974;BME280;7060;43.770;4.008;2023-04-29T05:58:16;100886.72;;;14.33;76.41
13974;BME280;7060;43.770;4.008;2023-04-29T06:00:44;100893.81;;;14.42;76.52
13974;BME280;7060;43.770;4.008;2023-04-29T06:03:20;100896.19;;;14.53;76.50
13974;BME280;7060;43.770;4.008;2023-04-29T06:06:01;100902.41;;;14.62;76.54
13974;BME280;7060;43.770;4.008;2023-04-29T06:08:53;100900.56;;;14.70;76.74
13974;BME280;7060;43.770;4.008;2023-04-29T06:11:27;100904.28;;;14.85;76.92
13974;BME280;7060;43.770;4.008;2023-04-29T06:13:55;100906.28;;;15.00;76.91
13974;BME280;7060;43.770;4.008;2023-04-29T06:16:24;100905.75;;;15.12;76.84
13974;BME280;7060;43.770;4.008;2023-04-29T06:18:53;100914.66;;;15.21;76.85
13974;BME280;7060;43.770;4.008;2023-04-29T06:21:23;100911.59;;;15.32;76.91
13974;BME280;7060;43.770;4.008;2023-04-29T06:23:52;100913.25;;;15.41;76.55
13974;BME280;7060;43.770;4.008;2023-04-29T06:26:21;100910.34;;;15.51;76.51
13974;BME280;7060;43.770;4.008;2023-04-29T06:28:51;100919.75;;;15.63;76.14
13974;BME280;7060;43.770;4.008;2023-04-29T06:31:20;100910.47;;;15.74;75.69
13974;BME280;7060;43.770;4.008;2023-04-29T06:33:51;100913.81;;;15.84;75.28
13974;BME280;7060;43.770;4.008;2023-04-29T06:36:19;100918.44;;;15.98;75.15
13974;BME280;7060;43.770;4.008;2023-04-29T06:39:14;100918.06;;;16.09;74.70
13974;BME280;7060;43.770;4.008;2023-04-29T06:42:11;100926.41;;;16.22;73.95
13974;BME280;7060;43.770;4.008;2023-04-29T06:45:00;100925.16;;;16.33;73.24
13974;BME280;7060;43.770;4.008;2023-04-29T06:47:40;100931.00;;;16.45;73.17
13974;BME280;7060;43.770;4.008;2023-04-29T06:50:11;100931.38;;;16.65;72.93
13974;BME280;7060;43.770;4.008;2023-04-29T06:52:40;100930.03;;;16.83;72.72
13974;BME280;7060;43.770;4.008;2023-04-29T06:55:09;100924.59;;;17.06;72.19
13974;BME280;7060;43.770;4.008;2023-04-29T06:57:41;100922.94;;;17.20;70.75
13974;BME280;7060;43.770;4.008;2023-04-29T07:00:11;100916.81;;;17.26;70.11
13974;BME280;7060;43.770;4.008;2023-04-29T07:02:41;100921.19;;;17.27;69.93
13974;BME280;7060;43.770;4.008;2023-04-29T07:05:10;100933.31;;;17.31;69.39
13974;BME280;7060;43.770;4.008;2023-04-29T07:07:38;100926.22;;;17.30;68.83
13974;BME280;7060;43.770;4.008;2023-04-29T07:10:07;100938.72;;;17.31;68.64
13974;BME280;7060;43.770;4.008;2023-04-29T07:12:36;100937.03;;;17.30;68.66
13974;BME280;7060;43.770;4.008;2023-04-29T07:15:06;100945.88;;;17.39;68.68
13974;BME280;7060;43.770;4.008;2023-04-29T07:17:36;100948.50;;;17.47;68.09
13974;BME280;7060;43.770;4.008;2023-04-29T07:20:06;100959.06;;;17.56;67.57
13974;BME280;7060;43.770;4.008;2023-04-29T07:22:35;100974.53;;;17.63;67.54
13974;BME280;7060;43.770;4.008;2023-04-29T07:25:03;100980.69;;;17.71;66.96
13974;BME280;7060;43.770;4.008;2023-04-29T07:27:33;100960.19;;;17.62;66.88
13974;BME280;7060;43.770;4.008;2023-04-29T07:30:02;100990.09;;;17.90;66.72
13974;BME280;7060;43.770;4.008;2023-04-29T07:32:31;100989.00;;;17.99;66.21
13974;BME280;7060;43.770;4.008;2023-04-29T07:35:04;100998.00;;;18.21;65.61
13974;BME280;7060;43.770;4.008;2023-04-29T07:37:33;101002.91;;;18.47;65.37
13974;BME280;7060;43.770;4.008;2023-04-29T07:40:03;100995.63;;;18.83;64.96
13974;BME280;7060;43.770;4.008;2023-04-29T07:42:32;100996.59;;;19.25;63.62
13974;BME280;7060;43.770;4.008;2023-04-29T07:45:01;100988.56;;;19.59;60.90
13974;BME280;7060;43.770;4.008;2023-04-29T07:47:30;100989.28;;;19.75;59.39
13974;BME280;7060;43.770;4.008;2023-04-29T07:49:59;100992.22;;;19.73;59.03
13974;BME280;7060;43.770;4.008;2023-04-29T07:52:30;100993.25;;;19.72;59.50
13974;BME280;7060;43.770;4.008;2023-04-29T07:54:58;100980.53;;;19.73;59.49
13974;BME280;7060;43.770;4.008;2023-04-29T07:57:26;100990.13;;;19.75;59.16
13974;BME280;7060;43.770;4.008;2023-04-29T07:59:55;100980.03;;;19.97;58.33
13974;BME280;7060;43.770;4.008;2023-04-29T08:02:23;100980.16;;;20.23;57.31
13974;BME280;7060;43.770;4.008;2023-04-29T08:04:52;100974.75;;;20.30;56.59
13974;BME280;7060;43.770;4.008;2023-04-29T08:07:22;100973.69;;;20.24;55.96
13974;BME280;7060;43.770;4.008;2023-04-29T08:09:52;100964.22;;;20.14;55.71
13974;BME280;7060;43.770;4.008;2023-04-29T08:12:21;100967.94;;;20.00;55.93
13974;BME280;7060;43.770;4.008;2023-04-29T08:14:49;100970.81;;;19.91;56.46
13974;BME280;7060;43.770;4.008;2023-04-29T08:17:20;100968.53;;;19.95;56.45
13974;BME280;7060;43.770;4.008;2023-04-29T08:19:48;100970.44;;;20.08;57.17
13974;BME280;7060;43.770;4.008;2023-04-29T08:22:17;100973.28;;;20.27;56.00
13974;BME280;7060;43.770;4.008;2023-04-29T08:24:45;100972.91;;;20.44;55.15
13974;BME280;7060;43.770;4.008;2023-04-29T08:27:16;100974.84;;;20.56;53.83
13974;BME280;7060;43.770;4.008;2023-04-29T08:29:44;100979.66;;;20.68;54.82
13974;BME280;7060;43.770;4.008;2023-04-29T08:32:13;100978.44;;;20.83;54.01
13974;BME280;7060;43.770;4.008;2023-04-29T08:34:41;100980.94;;;20.98;52.75
13974;BME280;7060;43.770;4.008;2023-04-29T08:37:10;100980.38;;;21.03;53.19
13974;BME280;7060;43.770;4.008;2023-04-29T08:39:39;100975.78;;;21.10;53.99
13974;BME280;7060;43.770;4.008;2023-04-29T08:42:09;100974.50;;;21.19;53.35
13974;BME280;7060;43.770;4.008;2023-04-29T08:44:39;100971.78;;;21.32;53.10
13974;BME280;7060;43.770;4.008;2023-04-29T08:47:08;100921.38;;;21.23;53.17
13974;BME280;7060;43.770;4.008;2023-04-29T08:49:37;100960.44;;;21.68;52.15
13974;BME280;7060;43.770;4.008;2023-04-29T08:52:06;100953.91;;;21.82;49.94
13974;BME280;7060;43.770;4.008;2023-04-29T08:54:34;100946.09;;;21.99;49.63
13974;BME280;7060;43.770;4.008;2023-04-29T08:57:03;100947.72;;;22.13;50.41
13974;BME280;7060;43.770;4.008;2023-04-29T08:59:32;100938.00;;;22.30;50.18
13974;BME280;7060;43.770;4.008;2023-04-29T09:02:03;100928.72;;;22.45;48.64
13974;BME280;7060;43.770;4.008;2023-04-29T09:04:42;100930.56;;;22.51;48.67
13974;BME280;7060;43.770;4.008;2023-04-29T09:07:13;100913.19;;;22.45;47.86
13974;BME280;7060;43.770;4.008;2023-04-29T09:09:42;100915.72;;;22.47;48.10
13974;BME280;7060;43.770;4.008;2023-04-29T09:12:10;100923.63;;;22.55;48.63
13974;BME280;7060;43.770;4.008;2023-04-29T09:14:39;100917.31;;;22.61;47.87
13974;BME280;7060;43.770;4.008;2023-04-29T09:17:09;100912.94;;;22.53;47.40
13974;BME280;7060;43.770;4.008;2023-04-29T09:19:37;100924.31;;;22.44;47.74
13974;BME280;7060;43.770;4.008;2023-04-29T09:22:06;100923.13;;;22.26;48.16
13974;BME280;7060;43.770;4.008;2023-04-29T09:24:34;100928.06;;;22.11;48.79
13974;BME280;7060;43.770;4.008;2023-04-29T09:27:03;100928.06;;;22.05;48.10
13974;BME280;7060;43.770;4.008;2023-04-29T09:29:32;100931.22;;;22.02;47.71
13974;BME280;7060;43.770;4.008;2023-04-29T09:32:17;100934.75;;;22.09;47.46
13974;BME280;7060;43.770;4.008;2023-04-29T09:34:46;100931.81;;;22.17;46.71
13974;BME280;7060;43.770;4.008;2023-04-29T09:37:23;100922.91;;;22.28;46.88
13974;BME280;7060;43.770;4.008;2023-04-29T09:39:52;100930.78;;;22.49;46.53
13974;BME280;7060;43.770;4.008;2023-04-29T09:42:21;100927.28;;;22.74;45.83
13974;BME280;7060;43.770;4.008;2023-04-29T09:44:49;100933.38;;;23.01;46.07
13974;BME280;7060;43.770;4.008;2023-04-29T09:47:28;100924.78;;;23.22;44.00
13974;BME280;7060;43.770;4.008;2023-04-29T09:50:10;100933.63;;;23.42;44.10
13974;BME280;7060;43.770;4.008;2023-04-29T09:52:40;100919.69;;;23.69;43.90
13974;BME280;7060;43.770;4.008;2023-04-29T09:55:10;100919.47;;;23.88;42.89
13974;BME280;7060;43.770;4.008;2023-04-29T09:57:39;100895.28;;;23.74;42.32
13974;BME280;7060;43.770;4.008;2023-04-29T10:00:12;100923.78;;;23.78;42.11
13974;BME280;7060;43.770;4.008;2023-04-29T10:02:42;100926.59;;;23.53;42.44
13974;BME280;7060;43.770;4.008;2023-04-29T10:05:13;100918.38;;;23.35;42.79
13974;BME280;7060;43.770;4.008;2023-04-29T10:07:45;100905.97;;;23.14;43.51
13974;BME280;7060;43.770;4.008;2023-04-29T10:10:14;100911.16;;;22.97;43.75
13974;BME280;7060;43.770;4.008;2023-04-29T10:12:43;100910.03;;;22.80;44.98
13974;BME280;7060;43.770;4.008;2023-04-29T10:15:19;100908.47;;;22.66;45.57
13974;BME280;7060;43.770;4.008;2023-04-29T10:17:54;100896.81;;;22.52;45.72
13974;BME280;7060;43.770;4.008;2023-04-29T10:20:25;100904.84;;;22.40;46.46
13974;BME280;7060;43.770;4.008;2023-04-29T10:22:54;100892.97;;;22.28;46.51
13974;BME280;7060;43.770;4.008;2023-04-29T10:25:25;100886.97;;;22.19;46.91
13974;BME280;7060;43.770;4.008;2023-04-29T10:27:55;100889.09;;;22.11;47.56
13974;BME280;7060;43.770;4.008;2023-04-29T10:30:25;100892.94;;;21.97;47.51
13974;BME280;7060;43.770;4.008;2023-04-29T10:32:55;100893.00;;;21.83;48.10
13974;BME280;7060;43.770;4.008;2023-04-29T10:35:28;100893.41;;;21.74;48.40
13974;BME280;7060;43.770;4.008;2023-04-29T10:37:58;100893.84;;;21.71;49.83
13974;BME280;7060;43.770;4.008;2023-04-29T10:40:37;100888.88;;;21.61;50.38
13974;BME280;7060;43.770;4.008;2023-04-29T10:43:07;100887.41;;;21.52;50.09
13974;BME280;7060;43.770;4.008;2023-04-29T10:45:36;100884.72;;;21.45;51.06
13974;BME280;7060;43.770;4.008;2023-04-29T10:48:11;100873.88;;;21.39;52.33
13974;BME280;7060;43.770;4.008;2023-04-29T10:50:59;100861.97;;;21.26;54.69
13974;BME280;7060;43.770;4.008;2023-04-29T10:53:28;100857.22;;;21.09;56.29
13974;BME280;7060;43.770;4.008;2023-04-29T10:56:02;100853.84;;;20.93;57.30
13974;BME280;7060;43.770;4.008;2023-04-29T10:58:35;100871.41;;;20.78;58.53
13974;BME280;7060;43.770;4.008;2023-04-29T11:01:04;100874.53;;;20.75;59.44
13974;BME280;7060;43.770;4.008;2023-04-29T11:04:02;100864.09;;;20.65;59.65
13974;BME280;7060;43.770;4.008;2023-04-29T11:06:40;100858.47;;;20.53;60.03
13974;BME280;7060;43.770;4.008;2023-04-29T11:09:11;100859.91;;;20.49;60.76
13974;BME280;7060;43.770;4.008;2023-04-29T11:11:57;100856.78;;;20.46;61.71
13974;BME280;7060;43.770;4.008;2023-04-29T11:14:29;100739.53;;;19.76;62.41
13974;BME280;7060;43.770;4.008;2023-04-29T11:16:59;100859.91;;;20.56;62.68
13974;BME280;7060;43.770;4.008;2023-04-29T11:19:34;100853.22;;;20.65;62.61
13974;BME280;7060;43.770;4.008;2023-04-29T11:22:13;100845.91;;;20.79;62.57
13974;BME280;7060;43.770;4.008;2023-04-29T11:24:54;100847.16;;;20.89;62.00
13974;BME280;7060;43.770;4.008;2023-04-29T11:27:25;100852.81;;;21.08;61.35
13974;BME280;7060;43.770;4.008;2023-04-29T11:29:55;100851.09;;;21.26;60.19
13974;BME280;7060;43.770;4.008;2023-04-29T11:32:26;100855.47;;;21.41;58.36
13974;BME280;7060;43.770;4.008;2023-04-29T11:35:06;100855.19;;;21.55;57.98
13974;BME280;7060;43.770;4.008;2023-04-29T11:37:35;100854.75;;;21.65;56.70
13974;BME280;7060;43.770;4.008;2023-04-29T11:40:05;100847.41;;;21.66;55.77
13974;BME280;7060;43.770;4.008;2023-04-29T11:42:34;100848.88;;;21.68;55.46
13974;BME280;7060;43.770;4.008;2023-04-29T11:45:03;100844.84;;;21.77;54.95
13974;BME280;7060;43.770;4.008;2023-04-29T11:47:33;100852.75;;;21.92;55.10
13974;BME280;7060;43.770;4.008;2023-04-29T11:50:04;100820.78;;;21.81;54.14
13974;BME280;7060;43.770;4.008;2023-04-29T11:52:36;100854.78;;;22.03;53.93
13974;BME280;7060;43.770;4.008;2023-04-29T11:55:07;100856.41;;;22.11;53.98
13974;BME280;7060;43.770;4.008;2023-04-29T11:57:37;100854.50;;;22.18;54.38
13974;BME280;7060;43.770;4.008;2023-04-29T12:00:08;100858.41;;;22.28;53.83
13974;BME280;7060;43.770;4.008;2023-04-29T12:02:37;100849.97;;;22.37;53.74
13974;BME280;7060;43.770;4.008;2023-04-29T12:05:08;100853.94;;;22.41;53.01
13974;BME280;7060;43.770;4.008;2023-04-29T12:07:39;100847.16;;;22.50;53.50
13974;BME280;7060;43.770;4.008;2023-04-29T12:10:08;100848.31;;;22.67;53.74
13974;BME280;7060;43.770;4.008;2023-04-29T12:12:38;100838.94;;;22.81;52.72
13974;BME280;7060;43.770;4.008;2023-04-29T12:15:10;100842.78;;;22.99;52.50
13974;BME280;7060;43.770;4.008;2023-04-29T12:17:39;100837.16;;;23.12;51.82
13974;BME280;7060;43.770;4.008;2023-04-29T12:20:11;100832.84;;;23.29;51.99
13974;BME280;7060;43.770;4.008;2023-04-29T12:22:40;100824.63;;;23.47;51.38
13974;BME280;7060;43.770;4.008;2023-04-29T12:25:10;100824.59;;;23.66;50.98
13974;BME280;7060;43.770;4.008;2023-04-29T12:27:40;100826.13;;;23.80;50.48
13974;BME280;7060;43.770;4.008;2023-04-29T12:30:10;100832.38;;;23.99;50.31
13974;BME280;7060;43.770;4.008;2023-04-29T12:32:39;100828.50;;;24.06;49.80
13974;BME280;7060;43.770;4.008;2023-04-29T12:35:17;100845.66;;;24.13;50.05
13974;BME280;7060;43.770;4.008;2023-04-29T12:37:48;100836.25;;;24.21;49.34
13974;BME280;7060;43.770;4.008;2023-04-29T12:40:17;100826.06;;;24.28;48.91
13974;BME280;7060;43.770;4.008;2023-04-29T12:42:47;100829.06;;;24.38;48.86
13974;BME280;7060;43.770;4.008;2023-04-29T12:45:27;100807.31;;;24.32;47.85
13974;BME280;7060;43.770;4.008;2023-04-29T12:47:56;100825.88;;;24.53;46.90
13974;BME280;7060;43.770;4.008;2023-04-29T12:50:34;100828.16;;;24.56;47.50
13974;BME280;7060;43.770;4.008;2023-04-29T12:53:04;100828.97;;;24.56;46.97
13974;BME280;7060;43.770;4.008;2023-04-29T12:55:34;100812.72;;;24.61;47.75
13974;BME280;7060;43.770;4.008;2023-04-29T12:58:04;100810.38;;;24.65;47.48
13974;BME280;7060;43.770;4.008;2023-04-29T13:00:33;100799.28;;;24.72;47.62
13974;BME280;7060;43.770;4.008;2023-04-29T13:03:03;100805.13;;;24.75;46.85
13974;BME280;7060;43.770;4.008;2023-04-29T13:05:34;100796.56;;;24.83;46.84
13974;BME280;7060;43.770;4.008;2023-04-29T13:08:02;100801.56;;;24.86;47.20
13974;BME280;7060;43.770;4.008;2023-04-29T13:10:33;100802.75;;;24.90;46.21
13974;BME280;7060;43.770;4.008;2023-04-29T13:13:02;100792.78;;;24.96;46.57
13974;BME280;7060;43.770;4.008;2023-04-29T13:15:31;100789.91;;;25.03;46.44
13974;BME280;7060;43.770;4.008;2023-04-29T13:18:00;100786.69;;;25.06;45.37
13974;BME280;7060;43.770;4.008;2023-04-29T13:20:29;100778.84;;;25.09;46.13
13974;BME280;7060;43.770;4.008;2023-04-29T13:22:59;100782.50;;;25.15;45.53